sensor_id;sensor_type;location;lat;lon;timestamp;temperature;humidity
22337;DHT22;14992;50.844;4.418;2022-09-04T00:02:41;21.00;99.90
22337;DHT22;14992;50.844;4.418;2022-09-04T00:05:30;21.10;99.90
22337;DHT22;14992;50.844;4.418;2022-09-04T00:08:36;21.00;99.90
22337;DHT22;14992;50.844;4.418;2022-09-04T00:11:31;21.00;99.90
22337;DHT22;14992;50.844;4.418;2022-09-04T00:14:30;21.10;99.90
22337;DHT22;14992;50.844;4.418;2022-09-04T00:17:18;21.10;99.90
22337;DHT22;14992;50.844;4.418;2022-09-04T00:20:15;21.10;99.90
22337;DHT22;14992;50.844;4.418;2022-09-04T00:23:18;21.10;99.90
22337;DHT22;14992;50.844;4.418;2022-09-04T00:26:07;21.20;99.90
22337;DHT22;14992;50.844;4.418;2022-09-04T00:29:06;21.30;99.90
22337;DHT22;14992;50.844;4.418;2022-09-04T00:32:12;21.20;99.90
22337;DHT22;14992;50.844;4.418;2022-09-04T00:35:05;21.10;99.90
22337;DHT22;14992;50.844;4.418;2022-09-04T00:37:59;21.30;99.90
22337;DHT22;14992;50.844;4.418;2022-09-04T00:40:45;21.10;99.90
22337;DHT22;14992;50.844;4.418;2022-09-04T00:43:54;21.00;99.90
22337;DHT22;14992;50.844;4.418;2022-09-04T00:47:17;20.80;99.90
22337;DHT22;14992;50.844;4.418;2022-09-04T00:50:19;20.80;99.90
22337;DHT22;14992;50.844;4.418;2022-09-04T00:53:29;21.00;99.90
22337;DHT22;14992;50.844;4.418;2022-09-04T00:57:06;20.90;99.90
22337;DHT22;14992;50.844;4.418;2022-09-04T01:00:03;20.90;99.90
22337;DHT22;14992;50.844;4.418;2022-09-04T01:03:29;20.70;99.90
22337;DHT22;14992;50.844;4.418;2022-09-04T01:06:20;20.80;99.90
22337;DHT22;14992;50.844;4.418;2022-09-04T01:09:28;20.60;99.90
22337;DHT22;14992;50.844;4.418;2022-09-04T01:12:34;20.80;99.90
22337;DHT22;14992;50.844;4.418;2022-09-04T01:15:13;20.70;99.90
22337;DHT22;14992;50.844;4.418;2022-09-04T01:18:13;20.70;99.90
22337;DHT22;14992;50.844;4.418;2022-09-04T01:24:32;20.60;99.90
22337;DHT22;14992;50.844;4.418;2022-09-04T01:27:27;20.90;99.90
22337;DHT22;14992;50.844;4.418;2022-09-04T01:30:24;20.90;99.90
22337;DHT22;14992;50.844;4.418;2022-09-04T01:33:09;20.80;99.90
22337;DHT22;14992;50.844;4.418;2022-09-04T01:35:59;20.60;99.90
22337;DHT22;14992;50.844;4.418;2022-09-04T01:38:52;20.50;99.90
22337;DHT22;14992;50.844;4.418;2022-09-04T01:41:52;20.40;99.90
22337;DHT22;14992;50.844;4.418;2022-09-04T01:44:31;20.50;99.90
22337;DHT22;14992;50.844;4.418;2022-09-04T01:47:32;20.50;99.90
22337;DHT22;14992;50.844;4.418;2022-09-04T01:50:30;20.70;99.90
22337;DHT22;14992;50.844;4.418;2022-09-04T01:53:16;20.70;99.90
22337;DHT22;14992;50.844;4.418;2022-09-04T01:56:17;20.80;99.90
22337;DHT22;14992;50.844;4.418;2022-09-04T01:58:55;20.80;99.90
22337;DHT22;14992;50.844;4.418;2022-09-04T02:02:00;20.50;99.90
22337;DHT22;14992;50.844;4.418;2022-09-04T02:04:50;20.30;99.90
22337;DHT22;14992;50.844;4.418;2022-09-04T02:07:53;20.20;99.90
22337;DHT22;14992;50.844;4.418;2022-09-04T02:10:46;20.10;99.90
22337;DHT22;14992;50.844;4.418;2022-09-04T02:13:57;20.30;99.90
22337;DHT22;14992;50.844;4.418;2022-09-04T02:17:08;20.30;99.90
22337;DHT22;14992;50.844;4.418;2022-09-04T02:20:02;20.20;99.90
22337;DHT22;14992;50.844;4.418;2022-09-04T02:23:10;20.20;99.90
22337;DHT22;14992;50.844;4.418;2022-09-04T02:26:02;20.10;99.90
22337;DHT22;14992;50.844;4.418;2022-09-04T02:28:59;20.10;99.90
22337;DHT22;14992;50.844;4.418;2022-09-04T02:32:02;20.10;99.90
22337;DHT22;14992;50.844;4.418;2022-09-04T02:34:52;20.10;99.90
22337;DHT22;14992;50.844;4.418;2022-09-04T02:37:51;20.10;99.90
22337;DHT22;14992;50.844;4.418;2022-09-04T02:40:41;20.10;99.90
22337;DHT22;14992;50.844;4.418;2022-09-04T02:43:54;20.40;99.90
22337;DHT22;14992;50.844;4.418;2022-09-04T02:46:46;20.60;99.90
22337;DHT22;14992;50.844;4.418;2022-09-04T02:49:47;20.60;99.90
22337;DHT22;14992;50.844;4.418;2022-09-04T02:52:43;20.50;99.90
22337;DHT22;14992;50.844;4.418;2022-09-04T02:55:51;20.20;99.90
22337;DHT22;14992;50.844;4.418;2022-09-04T02:59:11;20.20;99.90
22337;DHT22;14992;50.844;4.418;2022-09-04T03:01:57;20.40;99.90
22337;DHT22;14992;50.844;4.418;2022-09-04T03:04:51;20.30;99.90
22337;DHT22;14992;50.844;4.418;2022-09-04T03:07:38;20.20;99.90
22337;DHT22;14992;50.844;4.418;2022-09-04T03:10:30;20.20;99.90
22337;DHT22;14992;50.844;4.418;2022-09-04T03:13:19;20.10;99.90
22337;DHT22;14992;50.844;4.418;2022-09-04T03:16:20;20.20;99.90
22337;DHT22;14992;50.844;4.418;2022-09-04T03:19:03;20.30;99.90
22337;DHT22;14992;50.844;4.418;2022-09-04T03:22:11;20.10;99.90
22337;DHT22;14992;50.844;4.418;2022-09-04T03:25:04;20.10;99.90
22337;DHT22;14992;50.844;4.418;2022-09-04T03:28:04;20.30;99.90
22337;DHT22;14992;50.844;4.418;2022-09-04T03:31:01;20.50;99.90
22337;DHT22;14992;50.844;4.418;2022-09-04T03:33:55;20.40;99.90
22337;DHT22;14992;50.844;4.418;2022-09-04T03:37:00;20.30;99.90
22337;DHT22;14992;50.844;4.418;2022-09-04T03:39:54;20.20;99.90
22337;DHT22;14992;50.844;4.418;2022-09-04T03:43:09;19.90;99.90
22337;DHT22;14992;50.844;4.418;2022-09-04T03:46:03;19.90;99.90
22337;DHT22;14992;50.844;4.418;2022-09-04T03:49:07;19.90;99.90
22337;DHT22;14992;50.844;4.418;2022-09-04T03:52:01;19.80;99.90
22337;DHT22;14992;50.844;4.418;2022-09-04T03:55:14;20.00;99.90
22337;DHT22;14992;50.844;4.418;2022-09-04T03:58:08;20.20;99.90
22337;DHT22;14992;50.844;4.418;2022-09-04T04:01:08;20.10;99.90
22337;DHT22;14992;50.844;4.418;2022-09-04T04:04:41;20.00;99.90
22337;DHT22;14992;50.844;4.418;2022-09-04T04:07:46;19.90;99.90
22337;DHT22;14992;50.844;4.418;2022-09-04T04:10:29;19.80;99.90
22337;DHT22;14992;50.844;4.418;2022-09-04T04:13:40;19.90;99.90
22337;DHT22;14992;50.844;4.418;2022-09-04T04:16:47;20.20;99.90
22337;DHT22;14992;50.844;4.418;2022-09-04T04:19:47;20.50;99.90
22337;DHT22;14992;50.844;4.418;2022-09-04T04:22:58;20.30;99.90
22337;DHT22;14992;50.844;4.418;2022-09-04T04:25:58;20.20;99.90
22337;DHT22;14992;50.844;4.418;2022-09-04T04:29:13;20.00;99.90
22337;DHT22;14992;50.844;4.418;2022-09-04T04:32:39;19.90;99.90
22337;DHT22;14992;50.844;4.418;2022-09-04T04:35:34;19.90;99.90
22337;DHT22;14992;50.844;4.418;2022-09-04T04:38:53;19.80;99.90
22337;DHT22;14992;50.844;4.418;2022-09-04T04:42:02;20.20;99.90
22337;DHT22;14992;50.844;4.418;2022-09-04T04:44:55;20.20;99.90
22337;DHT22;14992;50.844;4.418;2022-09-04T04:48:26;20.20;99.90
22337;DHT22;14992;50.844;4.418;2022-09-04T04:51:17;20.20;99.90
22337;DHT22;14992;50.844;4.418;2022-09-04T04:54:19;20.30;99.90
22337;DHT22;14992;50.844;4.418;2022-09-04T04:57:11;20.30;99.90
22337;DHT22;14992;50.844;4.418;2022-09-04T05:00:09;20.30;99.90
22337;DHT22;14992;50.844;4.418;2022-09-04T05:03:03;20.20;99.90
22337;DHT22;14992;50.844;4.418;2022-09-04T05:05:59;20.20;99.90
22337;DHT22;14992;50.844;4.418;2022-09-04T05:08:48;20.00;99.90
22337;DHT22;14992;50.844;4.418;2022-09-04T05:11:52;20.10;99.90
22337;DHT22;14992;50.844;4.418;2022-09-04T05:14:56;20.10;99.90
22337;DHT22;14992;50.844;4.418;2022-09-04T05:17:50;20.10;99.90
22337;DHT22;14992;50.844;4.418;2022-09-04T05:20:35;19.90;99.90
22337;DHT22;14992;50.844;4.418;2022-09-04T05:23:32;20.00;99.90
22337;DHT22;14992;50.844;4.418;2022-09-04T05:26:37;19.90;99.90
22337;DHT22;14992;50.844;4.418;2022-09-04T05:29:35;19.80;99.90
22337;DHT22;14992;50.844;4.418;2022-09-04T05:32:44;19.70;99.90
22337;DHT22;14992;50.844;4.418;2022-09-04T05:35:37;19.60;99.90
22337;DHT22;14992;50.844;4.418;2022-09-04T05:38:39;19.70;99.90
22337;DHT22;14992;50.844;4.418;2022-09-04T05:41:45;19.70;99.90
22337;DHT22;14992;50.844;4.418;2022-09-04T05:44:55;19.70;99.90
22337;DHT22;14992;50.844;4.418;2022-09-04T05:48:09;19.60;99.90
22337;DHT22;14992;50.844;4.418;2022-09-04T05:51:04;19.60;99.90
22337;DHT22;14992;50.844;4.418;2022-09-04T05:54:18;19.70;99.90
22337;DHT22;14992;50.844;4.418;2022-09-04T05:57:24;19.60;99.90
22337;DHT22;14992;50.844;4.418;2022-09-04T06:00:08;19.80;99.90
22337;DHT22;14992;50.844;4.418;2022-09-04T06:03:55;20.00;99.90
22337;DHT22;14992;50.844;4.418;2022-09-04T06:06:57;20.00;99.90
22337;DHT22;14992;50.844;4.418;2022-09-04T06:09:55;20.00;99.90
22337;DHT22;14992;50.844;4.418;2022-09-04T06:13:19;20.00;99.90
22337;DHT22;14992;50.844;4.418;2022-09-04T06:16:16;20.10;99.90
22337;DHT22;14992;50.844;4.418;2022-09-04T06:19:36;20.30;99.90
22337;DHT22;14992;50.844;4.418;2022-09-04T06:22:59;20.40;99.90
22337;DHT22;14992;50.844;4.418;2022-09-04T06:29:19;20.40;99.90
22337;DHT22;14992;50.844;4.418;2022-09-04T06:32:44;20.30;99.90
22337;DHT22;14992;50.844;4.418;2022-09-04T06:35:52;20.40;99.90
22337;DHT22;14992;50.844;4.418;2022-09-04T06:38:52;20.40;99.90
22337;DHT22;14992;50.844;4.418;2022-09-04T06:41:48;20.50;99.90
22337;DHT22;14992;50.844;4.418;2022-09-04T06:44:50;20.80;99.90
22337;DHT22;14992;50.844;4.418;2022-09-04T06:47:48;20.90;99.90
22337;DHT22;14992;50.844;4.418;2022-09-04T06:50:46;21.10;99.90
22337;DHT22;14992;50.844;4.418;2022-09-04T06:53:38;21.20;99.90
22337;DHT22;14992;50.844;4.418;2022-09-04T06:56:50;21.30;99.90
22337;DHT22;14992;50.844;4.418;2022-09-04T07:00:03;21.30;99.90
22337;DHT22;14992;50.844;4.418;2022-09-04T07:03:05;21.30;99.90
22337;DHT22;14992;50.844;4.418;2022-09-04T07:06:04;21.40;99.90
22337;DHT22;14992;50.844;4.418;2022-09-04T07:08:59;21.40;99.90
22337;DHT22;14992;50.844;4.418;2022-09-04T07:12:36;21.50;99.90
22337;DHT22;14992;50.844;4.418;2022-09-04T07:15:45;21.60;99.90
22337;DHT22;14992;50.844;4.418;2022-09-04T07:19:11;21.70;99.90
22337;DHT22;14992;50.844;4.418;2022-09-04T07:22:07;22.00;99.90
22337;DHT22;14992;50.844;4.418;2022-09-04T07:25:12;22.00;99.90
22337;DHT22;14992;50.844;4.418;2022-09-04T07:28:16;21.90;99.90
22337;DHT22;14992;50.844;4.418;2022-09-04T07:31:18;22.00;99.90
22337;DHT22;14992;50.844;4.418;2022-09-04T07:34:07;22.10;99.90
22337;DHT22;14992;50.844;4.418;2022-09-04T07:37:12;22.10;99.90
22337;DHT22;14992;50.844;4.418;2022-09-04T07:40:05;22.00;99.90
22337;DHT22;14992;50.844;4.418;2022-09-04T07:43:14;22.10;99.90
22337;DHT22;14992;50.844;4.418;2022-09-04T07:46:00;22.10;99.90
22337;DHT22;14992;50.844;4.418;2022-09-04T07:49:01;22.40;99.90
22337;DHT22;14992;50.844;4.418;2022-09-04T07:52:05;22.50;99.90
22337;DHT22;14992;50.844;4.418;2022-09-04T07:55:16;22.60;99.90
22337;DHT22;14992;50.844;4.418;2022-09-04T07:58:44;22.50;99.90
22337;DHT22;14992;50.844;4.418;2022-09-04T08:05:00;22.80;99.90
22337;DHT22;14992;50.844;4.418;2022-09-04T08:08:15;22.90;99.90
22337;DHT22;14992;50.844;4.418;2022-09-04T08:11:23;22.80;99.90
22337;DHT22;14992;50.844;4.418;2022-09-04T08:14:21;22.90;99.90
22337;DHT22;14992;50.844;4.418;2022-09-04T08:17:27;22.80;99.90
22337;DHT22;14992;50.844;4.418;2022-09-04T08:20:26;23.10;99.90
22337;DHT22;14992;50.844;4.418;2022-09-04T08:23:28;23.40;99.90
22337;DHT22;14992;50.844;4.418;2022-09-04T08:26:34;23.50;99.90
22337;DHT22;14992;50.844;4.418;2022-09-04T08:29:33;23.60;99.90
22337;DHT22;14992;50.844;4.418;2022-09-04T08:32:55;23.70;99.90
22337;DHT22;14992;50.844;4.418;2022-09-04T08:35:34;23.70;99.90
22337;DHT22;14992;50.844;4.418;2022-09-04T08:38:40;23.90;99.90
22337;DHT22;14992;50.844;4.418;2022-09-04T08:41:48;24.20;99.90
22337;DHT22;14992;50.844;4.418;2022-09-04T08:45:05;24.00;99.90
22337;DHT22;14992;50.844;4.418;2022-09-04T08:48:25;24.00;99.90
22337;DHT22;14992;50.844;4.418;2022-09-04T08:52:00;24.20;99.90
22337;DHT22;14992;50.844;4.418;2022-09-04T08:55:18;24.20;99.90
22337;DHT22;14992;50.844;4.418;2022-09-04T09:02:02;24.50;99.90
22337;DHT22;14992;50.844;4.418;2022-09-04T09:05:40;24.50;99.90
22337;DHT22;14992;50.844;4.418;2022-09-04T09:12:49;24.50;99.90
22337;DHT22;14992;50.844;4.418;2022-09-04T09:16:09;24.40;99.90
22337;DHT22;14992;50.844;4.418;2022-09-04T09:19:09;24.40;99.90
22337;DHT22;14992;50.844;4.418;2022-09-04T09:22:12;24.30;99.90
22337;DHT22;14992;50.844;4.418;2022-09-04T09:25:14;24.50;99.90
22337;DHT22;14992;50.844;4.418;2022-09-04T09:39:09;24.80;99.90
22337;DHT22;14992;50.844;4.418;2022-09-04T09:42:19;24.90;99.90
22337;DHT22;14992;50.844;4.418;2022-09-04T09:45:25;24.90;99.90
22337;DHT22;14992;50.844;4.418;2022-09-04T09:48:36;25.00;99.90
22337;DHT22;14992;50.844;4.418;2022-09-04T09:52:03;25.00;99.90
22337;DHT22;14992;50.844;4.418;2022-09-04T09:58:31;25.20;99.90
22337;DHT22;14992;50.844;4.418;2022-09-04T10:01:44;25.10;99.90
22337;DHT22;14992;50.844;4.418;2022-09-04T10:04:50;25.10;99.90
22337;DHT22;14992;50.844;4.418;2022-09-04T10:08:08;25.00;99.90
22337;DHT22;14992;50.844;4.418;2022-09-04T10:11:07;25.00;99.90
22337;DHT22;14992;50.844;4.418;2022-09-04T10:14:41;24.90;99.90
22337;DHT22;14992;50.844;4.418;2022-09-04T10:21:15;25.30;98.90
22337;DHT22;14992;50.844;4.418;2022-09-04T10:24:30;25.40;98.50
22337;DHT22;14992;50.844;4.418;2022-09-04T10:31:32;25.50;95.90
22337;DHT22;14992;50.844;4.418;2022-09-04T10:38:13;25.30;95.00
22337;DHT22;14992;50.844;4.418;2022-09-04T10:41:18;25.30;94.60
22337;DHT22;14992;50.844;4.418;2022-09-04T10:44:35;25.50;92.60
22337;DHT22;14992;50.844;4.418;2022-09-04T10:51:03;25.70;91.20
22337;DHT22;14992;50.844;4.418;2022-09-04T10:54:15;25.80;88.50
22337;DHT22;14992;50.844;4.418;2022-09-04T10:57:31;25.90;86.90
22337;DHT22;14992;50.844;4.418;2022-09-04T11:00:18;25.90;87.70
22337;DHT22;14992;50.844;4.418;2022-09-04T11:03:33;26.00;86.20
22337;DHT22;14992;50.844;4.418;2022-09-04T11:10:16;26.30;87.00
22337;DHT22;14992;50.844;4.418;2022-09-04T11:13:55;26.40;86.20
22337;DHT22;14992;50.844;4.418;2022-09-04T11:17:02;26.60;83.60
22337;DHT22;14992;50.844;4.418;2022-09-04T11:23:57;26.30;84.30
22337;DHT22;14992;50.844;4.418;2022-09-04T11:30:29;26.20;86.10
22337;DHT22;14992;50.844;4.418;2022-09-04T11:37:43;26.30;88.90
22337;DHT22;14992;50.844;4.418;2022-09-04T11:52:15;26.60;89.10
22337;DHT22;14992;50.844;4.418;2022-09-04T11:58:02;26.60;88.70
22337;DHT22;14992;50.844;4.418;2022-09-04T12:00:41;26.50;89.00
22337;DHT22;14992;50.844;4.418;2022-09-04T12:03:42;26.50;90.00
22337;DHT22;14992;50.844;4.418;2022-09-04T12:06:27;26.60;88.70
22337;DHT22;14992;50.844;4.418;2022-09-04T12:09:27;26.70;88.30
22337;DHT22;14992;50.844;4.418;2022-09-04T12:12:29;26.70;88.10
22337;DHT22;14992;50.844;4.418;2022-09-04T12:15:28;26.70;89.30
22337;DHT22;14992;50.844;4.418;2022-09-04T12:18:17;26.80;88.10
22337;DHT22;14992;50.844;4.418;2022-09-04T12:21:12;26.60;89.80
22337;DHT22;14992;50.844;4.418;2022-09-04T12:24:07;26.80;88.60
22337;DHT22;14992;50.844;4.418;2022-09-04T12:27:04;26.80;89.30
22337;DHT22;14992;50.844;4.418;2022-09-04T12:29:58;26.90;89.00
22337;DHT22;14992;50.844;4.418;2022-09-04T12:41:48;27.10;87.30
22337;DHT22;14992;50.844;4.418;2022-09-04T12:44:31;27.20;85.20
22337;DHT22;14992;50.844;4.418;2022-09-04T12:47:17;27.10;86.10
22337;DHT22;14992;50.844;4.418;2022-09-04T12:50:06;27.20;86.70
22337;DHT22;14992;50.844;4.418;2022-09-04T12:52:54;27.20;86.30
22337;DHT22;14992;50.844;4.418;2022-09-04T12:55:35;27.20;86.10
22337;DHT22;14992;50.844;4.418;2022-09-04T12:58:14;27.10;85.70
22337;DHT22;14992;50.844;4.418;2022-09-04T13:00:55;27.30;85.80
22337;DHT22;14992;50.844;4.418;2022-09-04T13:03:36;27.50;85.70
22337;DHT22;14992;50.844;4.418;2022-09-04T13:06:17;27.50;85.80
22337;DHT22;14992;50.844;4.418;2022-09-04T13:08:55;27.40;86.00
22337;DHT22;14992;50.844;4.418;2022-09-04T13:11:38;27.40;86.40
22337;DHT22;14992;50.844;4.418;2022-09-04T13:14:29;27.50;85.30
22337;DHT22;14992;50.844;4.418;2022-09-04T13:17:09;27.50;85.40
22337;DHT22;14992;50.844;4.418;2022-09-04T13:19:45;27.60;85.00
22337;DHT22;14992;50.844;4.418;2022-09-04T13:22:24;27.60;85.30
22337;DHT22;14992;50.844;4.418;2022-09-04T13:25:02;27.70;85.80
22337;DHT22;14992;50.844;4.418;2022-09-04T13:27:43;27.70;85.00
22337;DHT22;14992;50.844;4.418;2022-09-04T13:30:18;27.80;84.80
22337;DHT22;14992;50.844;4.418;2022-09-04T13:33:17;27.80;83.10
22337;DHT22;14992;50.844;4.418;2022-09-04T13:36:11;27.80;84.10
22337;DHT22;14992;50.844;4.418;2022-09-04T13:39:10;27.70;85.10
22337;DHT22;14992;50.844;4.418;2022-09-04T13:42:04;27.60;85.70
22337;DHT22;14992;50.844;4.418;2022-09-04T13:45:00;27.70;86.50
22337;DHT22;14992;50.844;4.418;2022-09-04T13:47:38;28.00;81.70
22337;DHT22;14992;50.844;4.418;2022-09-04T13:50:16;28.10;81.10
22337;DHT22;14992;50.844;4.418;2022-09-04T13:52:55;28.20;81.60
22337;DHT22;14992;50.844;4.418;2022-09-04T13:55:28;28.20;82.40
22337;DHT22;14992;50.844;4.418;2022-09-04T13:58:04;28.20;83.00
22337;DHT22;14992;50.844;4.418;2022-09-04T14:00:41;28.30;81.70
22337;DHT22;14992;50.844;4.418;2022-09-04T14:03:20;28.20;80.40
22337;DHT22;14992;50.844;4.418;2022-09-04T14:05:52;28.10;79.90
22337;DHT22;14992;50.844;4.418;2022-09-04T14:08:21;28.10;79.20
22337;DHT22;14992;50.844;4.418;2022-09-04T14:11:11;28.00;78.60
22337;DHT22;14992;50.844;4.418;2022-09-04T14:13:59;28.00;77.60
22337;DHT22;14992;50.844;4.418;2022-09-04T14:16:37;28.00;77.90
22337;DHT22;14992;50.844;4.418;2022-09-04T14:19:21;28.00;78.30
22337;DHT22;14992;50.844;4.418;2022-09-04T14:22:09;28.10;78.40
22337;DHT22;14992;50.844;4.418;2022-09-04T14:24:43;28.10;78.50
22337;DHT22;14992;50.844;4.418;2022-09-04T14:27:19;28.00;79.00
22337;DHT22;14992;50.844;4.418;2022-09-04T14:29:59;28.00;77.40
22337;DHT22;14992;50.844;4.418;2022-09-04T14:32:37;28.10;77.40
22337;DHT22;14992;50.844;4.418;2022-09-04T14:35:16;28.20;77.60
22337;DHT22;14992;50.844;4.418;2022-09-04T14:38:05;28.20;77.20
22337;DHT22;14992;50.844;4.418;2022-09-04T14:40:48;28.30;76.50
22337;DHT22;14992;50.844;4.418;2022-09-04T14:43:31;28.30;77.10
22337;DHT22;14992;50.844;4.418;2022-09-04T14:46:10;28.30;76.40
22337;DHT22;14992;50.844;4.418;2022-09-04T14:48:43;28.20;76.00
22337;DHT22;14992;50.844;4.418;2022-09-04T14:51:16;28.30;75.30
22337;DHT22;14992;50.844;4.418;2022-09-04T14:53:59;28.40;75.70
22337;DHT22;14992;50.844;4.418;2022-09-04T14:56:32;28.30;75.30
22337;DHT22;14992;50.844;4.418;2022-09-04T14:59:10;28.20;75.30
22337;DHT22;14992;50.844;4.418;2022-09-04T15:02:11;28.00;76.20
22337;DHT22;14992;50.844;4.418;2022-09-04T15:04:46;28.10;76.20
22337;DHT22;14992;50.844;4.418;2022-09-04T15:07:45;28.30;74.00
22337;DHT22;14992;50.844;4.418;2022-09-04T15:10:21;28.50;73.90
22337;DHT22;14992;50.844;4.418;2022-09-04T15:13:13;28.70;73.40
22337;DHT22;14992;50.844;4.418;2022-09-04T15:15:46;28.80;72.60
22337;DHT22;14992;50.844;4.418;2022-09-04T15:18:21;28.90;72.40
22337;DHT22;14992;50.844;4.418;2022-09-04T15:20:56;29.00;71.80
22337;DHT22;14992;50.844;4.418;2022-09-04T15:23:33;28.80;72.30
22337;DHT22;14992;50.844;4.418;2022-09-04T15:26:08;28.80;72.20
22337;DHT22;14992;50.844;4.418;2022-09-04T15:28:41;28.90;72.40
22337;DHT22;14992;50.844;4.418;2022-09-04T15:31:11;29.00;71.70
22337;DHT22;14992;50.844;4.418;2022-09-04T15:33:45;29.10;71.30
22337;DHT22;14992;50.844;4.418;2022-09-04T15:36:16;29.00;70.10
22337;DHT22;14992;50.844;4.418;2022-09-04T15:38:50;29.00;69.30
22337;DHT22;14992;50.844;4.418;2022-09-04T15:41:25;29.00;69.10
22337;DHT22;14992;50.844;4.418;2022-09-04T15:43:59;28.90;69.70
22337;DHT22;14992;50.844;4.418;2022-09-04T15:46:44;28.90;71.20
22337;DHT22;14992;50.844;4.418;2022-09-04T15:49:37;29.00;71.70
22337;DHT22;14992;50.844;4.418;2022-09-04T15:52:18;29.00;71.90
22337;DHT22;14992;50.844;4.418;2022-09-04T15:54:58;28.80;72.20
22337;DHT22;14992;50.844;4.418;2022-09-04T15:57:42;28.90;71.60
22337;DHT22;14992;50.844;4.418;2022-09-04T16:00:15;28.80;72.40
22337;DHT22;14992;50.844;4.418;2022-09-04T16:02:51;28.80;72.00
22337;DHT22;14992;50.844;4.418;2022-09-04T16:05:29;28.90;72.30
22337;DHT22;14992;50.844;4.418;2022-09-04T16:08:05;28.70;72.70
22337;DHT22;14992;50.844;4.418;2022-09-04T16:10:57;28.70;72.30
22337;DHT22;14992;50.844;4.418;2022-09-04T16:13:39;28.90;72.90
22337;DHT22;14992;50.844;4.418;2022-09-04T16:16:13;29.00;71.90
22337;DHT22;14992;50.844;4.418;2022-09-04T16:18:51;29.10;72.00
22337;DHT22;14992;50.844;4.418;2022-09-04T16:21:27;29.10;72.30
22337;DHT22;14992;50.844;4.418;2022-09-04T16:24:06;29.20;71.90
22337;DHT22;14992;50.844;4.418;2022-09-04T16:26:36;29.10;71.80
22337;DHT22;14992;50.844;4.418;2022-09-04T16:29:11;29.20;71.70
22337;DHT22;14992;50.844;4.418;2022-09-04T16:31:50;28.90;72.00
22337;DHT22;14992;50.844;4.418;2022-09-04T16:34:21;28.90;71.80
22337;DHT22;14992;50.844;4.418;2022-09-04T16:36:54;28.80;72.20
22337;DHT22;14992;50.844;4.418;2022-09-04T16:39:31;28.90;71.40
22337;DHT22;14992;50.844;4.418;2022-09-04T16:42:14;28.90;71.70
22337;DHT22;14992;50.844;4.418;2022-09-04T16:44:51;29.00;69.90
22337;DHT22;14992;50.844;4.418;2022-09-04T16:47:25;29.00;69.60
22337;DHT22;14992;50.844;4.418;2022-09-04T16:50:04;28.80;69.80
22337;DHT22;14992;50.844;4.418;2022-09-04T16:52:44;28.70;69.90
22337;DHT22;14992;50.844;4.418;2022-09-04T16:55:28;28.60;70.40
22337;DHT22;14992;50.844;4.418;2022-09-04T16:58:11;28.70;69.30
22337;DHT22;14992;50.844;4.418;2022-09-04T17:00:55;28.70;69.90
22337;DHT22;14992;50.844;4.418;2022-09-04T17:03:52;28.60;70.20
22337;DHT22;14992;50.844;4.418;2022-09-04T17:06:45;28.30;71.00
22337;DHT22;14992;50.844;4.418;2022-09-04T17:09:25;28.20;71.20
22337;DHT22;14992;50.844;4.418;2022-09-04T17:11:59;28.20;71.80
22337;DHT22;14992;50.844;4.418;2022-09-04T17:14:35;28.00;71.70
22337;DHT22;14992;50.844;4.418;2022-09-04T17:17:13;28.20;70.60
22337;DHT22;14992;50.844;4.418;2022-09-04T17:20:07;28.20;70.50
22337;DHT22;14992;50.844;4.418;2022-09-04T17:22:43;28.20;71.10
22337;DHT22;14992;50.844;4.418;2022-09-04T17:25:37;28.10;71.20
22337;DHT22;14992;50.844;4.418;2022-09-04T17:28:29;28.00;71.20
22337;DHT22;14992;50.844;4.418;2022-09-04T17:31:24;27.80;72.10
22337;DHT22;14992;50.844;4.418;2022-09-04T17:34:04;27.70;72.10
22337;DHT22;14992;50.844;4.418;2022-09-04T17:37:02;27.40;73.80
22337;DHT22;14992;50.844;4.418;2022-09-04T17:40:00;27.20;74.70
22337;DHT22;14992;50.844;4.418;2022-09-04T17:42:59;27.10;76.10
22337;DHT22;14992;50.844;4.418;2022-09-04T17:45:58;27.00;77.00
22337;DHT22;14992;50.844;4.418;2022-09-04T17:48:36;26.90;77.80
22337;DHT22;14992;50.844;4.418;2022-09-04T17:51:15;26.70;78.00
22337;DHT22;14992;50.844;4.418;2022-09-04T17:53:49;26.70;79.10
22337;DHT22;14992;50.844;4.418;2022-09-04T17:56:22;26.70;76.40
22337;DHT22;14992;50.844;4.418;2022-09-04T17:58:58;26.70;77.50
22337;DHT22;14992;50.844;4.418;2022-09-04T18:01:33;26.60;78.90
22337;DHT22;14992;50.844;4.418;2022-09-04T18:04:23;26.40;79.90
22337;DHT22;14992;50.844;4.418;2022-09-04T18:06:59;26.40;81.30
22337;DHT22;14992;50.844;4.418;2022-09-04T18:09:57;26.30;81.80
22337;DHT22;14992;50.844;4.418;2022-09-04T18:12:34;26.30;82.10
22337;DHT22;14992;50.844;4.418;2022-09-04T18:15:08;26.30;82.80
22337;DHT22;14992;50.844;4.418;2022-09-04T18:18:05;26.10;83.70
22337;DHT22;14992;50.844;4.418;2022-09-04T18:20:39;26.00;84.40
22337;DHT22;14992;50.844;4.418;2022-09-04T18:23:29;25.90;85.00
22337;DHT22;14992;50.844;4.418;2022-09-04T18:26:26;25.90;85.20
22337;DHT22;14992;50.844;4.418;2022-09-04T18:29:39;25.80;85.50
22337;DHT22;14992;50.844;4.418;2022-09-04T18:32:35;25.60;86.50
22337;DHT22;14992;50.844;4.418;2022-09-04T18:35:37;25.50;87.70
22337;DHT22;14992;50.844;4.418;2022-09-04T18:38:36;25.50;89.00
22337;DHT22;14992;50.844;4.418;2022-09-04T18:41:11;25.40;89.20
22337;DHT22;14992;50.844;4.418;2022-09-04T18:44:05;25.40;90.10
22337;DHT22;14992;50.844;4.418;2022-09-04T18:47:11;25.20;90.40
22337;DHT22;14992;50.844;4.418;2022-09-04T18:50:00;25.20;90.80
22337;DHT22;14992;50.844;4.418;2022-09-04T18:52:53;25.10;91.20
22337;DHT22;14992;50.844;4.418;2022-09-04T18:55:28;25.10;91.50
22337;DHT22;14992;50.844;4.418;2022-09-04T18:58:26;25.10;91.80
22337;DHT22;14992;50.844;4.418;2022-09-04T19:01:00;25.00;92.40
22337;DHT22;14992;50.844;4.418;2022-09-04T19:03:35;25.00;92.30
22337;DHT22;14992;50.844;4.418;2022-09-04T19:06:11;25.00;92.50
22337;DHT22;14992;50.844;4.418;2022-09-04T19:08:45;24.90;92.80
22337;DHT22;14992;50.844;4.418;2022-09-04T19:11:21;24.90;92.80
22337;DHT22;14992;50.844;4.418;2022-09-04T19:13:54;24.90;93.30
22337;DHT22;14992;50.844;4.418;2022-09-04T19:16:40;24.90;93.80
22337;DHT22;14992;50.844;4.418;2022-09-04T19:19:15;24.90;94.10
22337;DHT22;14992;50.844;4.418;2022-09-04T19:21:52;24.90;93.60
22337;DHT22;14992;50.844;4.418;2022-09-04T19:24:30;24.80;93.60
22337;DHT22;14992;50.844;4.418;2022-09-04T19:27:15;24.80;93.90
22337;DHT22;14992;50.844;4.418;2022-09-04T19:29:55;24.70;94.00
22337;DHT22;14992;50.844;4.418;2022-09-04T19:32:57;24.70;94.30
22337;DHT22;14992;50.844;4.418;2022-09-04T19:35:34;24.60;95.00
22337;DHT22;14992;50.844;4.418;2022-09-04T19:38:09;24.60;95.40
22337;DHT22;14992;50.844;4.418;2022-09-04T19:41:05;24.50;96.00
22337;DHT22;14992;50.844;4.418;2022-09-04T19:44:03;24.40;96.70
22337;DHT22;14992;50.844;4.418;2022-09-04T19:47:08;24.40;97.40